Terminal Aerodrome Forecast
Issued by NWS Green Bay, WI

Home | Current Version | Previous Version | Graphics & Text | Print | Product List | Glossary On
Versions: 1 2 3 4 5 6 7 8 9 10 11 12 13 14 15 16 17 18 19 20 21 22 23 24 25 26 27 28 29 30 31 32 33 34
000
FTUS43 KGRB 242335
TAFGRB
TAF
KGRB 242335Z 2500/2524 01020G30KT 2SM -FZDZSN BR OVC009
     FM250400 35018G28KT 2SM -SN BR OVC012
     FM251100 32017G25KT P6SM -SN SCT015 OVC025 PROB30 2511/2515 3SM
      -SN BKN015
     FM251500 30017G27KT P6SM SCT015 OVC035=

USA.gov is the U.S. government's official web portal to all federal, state and local government web resources and services.